createdAt,value
2022-09-11T00:00:16.307Z,100
2022-09-11T00:01:26.706Z,100
2022-09-11T00:02:36.818Z,100
2022-09-11T00:03:46.655Z,100
2022-09-11T00:06:07.165Z,100
2022-09-11T00:07:16.028Z,100
2022-09-11T00:08:26.154Z,100
2022-09-11T00:09:36.262Z,100
2022-09-11T00:10:46.385Z,100
2022-09-11T00:11:56.764Z,100
2022-09-11T00:13:06.611Z,100
2022-09-11T00:14:16.739Z,100
2022-09-11T00:15:27.118Z,100
2022-09-11T00:16:36.976Z,100
2022-09-11T00:17:47.084Z,100
2022-09-11T00:18:57.206Z,100
2022-09-11T00:20:07.000Z,100
2022-09-11T00:21:17.446Z,100
2022-09-11T00:22:26.841Z,100
2022-09-11T00:23:36.699Z,100
2022-09-11T00:24:46.804Z,100
2022-09-11T00:25:56.926Z,100
2022-09-11T00:27:07.049Z,100
2022-09-11T00:28:17.162Z,100
2022-09-11T00:29:27.285Z,100
2022-09-11T00:30:37.401Z,100
2022-09-11T00:31:47.791Z,100
2022-09-11T00:32:57.636Z,100
2022-09-11T00:34:07.761Z,100
2022-09-11T00:36:27.987Z,100
2022-09-11T00:37:37.129Z,100
2022-09-11T00:38:47.234Z,100
2022-09-11T00:39:57.357Z,100
2022-09-11T00:41:07.473Z,100
2022-09-11T00:42:17.596Z,100
2022-09-11T00:43:27.718Z,100
2022-09-11T00:44:37.823Z,100
2022-09-11T00:45:47.944Z,100
2022-09-11T00:46:58.332Z,100
2022-09-11T00:48:08.449Z,100
2022-09-11T00:49:18.288Z,100
2022-09-11T00:50:28.417Z,100
2022-09-11T00:51:38.532Z,100
2022-09-11T00:52:47.668Z,100
2022-09-11T00:53:57.789Z,100
2022-09-11T00:55:07.895Z,100
2022-09-11T00:56:18.017Z,100
2022-09-11T00:57:28.129Z,100
2022-09-11T00:58:38.257Z,100
2022-09-11T00:59:48.378Z,100
2022-09-11T01:00:58.756Z,100
2022-09-11T01:02:08.876Z,100
2022-09-11T01:04:28.845Z,100
2022-09-11T01:05:38.961Z,100
2022-09-11T01:06:49.076Z,100
2022-09-11T01:07:58.205Z,100
2022-09-11T01:09:08.592Z,100
2022-09-11T01:10:18.448Z,100
2022-09-11T01:11:28.557Z,100
2022-09-11T01:12:38.678Z,100
2022-09-11T01:13:48.796Z,100
2022-09-11T01:16:09.033Z,100
2022-09-11T01:17:19.153Z,100
2022-09-11T01:18:29.260Z,100
2022-09-11T01:19:39.393Z,100
2022-09-11T01:20:49.504Z,100
2022-09-11T01:21:59.624Z,100
2022-09-11T01:23:08.754Z,100
2022-09-11T01:24:18.882Z,100
2022-09-11T01:25:28.990Z,100
2022-09-11T01:26:39.118Z,100
2022-09-11T01:27:49.227Z,100
2022-09-11T01:28:59.334Z,100
2022-09-11T01:30:09.735Z,100
2022-09-11T01:32:29.958Z,100
2022-09-11T01:34:50.199Z,100
2022-09-11T01:37:09.464Z,100
2022-09-11T01:39:28.727Z,100
2022-09-11T01:41:47.994Z,100
2022-09-11T01:42:57.134Z,100
2022-09-11T01:44:06.270Z,100
2022-09-11T01:46:26.504Z,100
2022-09-11T01:47:36.625Z,100
2022-09-11T01:48:46.740Z,100
2022-09-11T01:49:56.851Z,100
2022-09-11T01:53:27.216Z,100
2022-09-11T01:54:37.322Z,100
2022-09-11T01:56:57.555Z,100
2022-09-11T01:58:07.678Z,100
2022-09-11T02:00:26.931Z,100
2022-09-11T02:02:46.183Z,100
2022-09-11T02:03:55.063Z,100
2022-09-11T02:05:04.201Z,100
2022-09-11T02:06:14.316Z,100
2022-09-11T02:07:24.443Z,100
2022-09-11T02:08:34.551Z,100
2022-09-11T02:09:44.671Z,100
2022-09-11T02:10:54.792Z,100
2022-09-11T02:12:04.914Z,100
2022-09-11T02:14:25.153Z,100
2022-09-11T02:15:35.273Z,100
2022-09-11T02:16:45.377Z,100
2022-09-11T02:17:55.505Z,100
2022-09-11T02:19:05.609Z,100
2022-09-11T02:20:14.748Z,100
2022-09-11T02:21:24.872Z,100
2022-09-11T02:22:35.246Z,100
2022-09-11T02:23:45.095Z,100
2022-09-11T02:24:55.228Z,100
2022-09-11T02:26:05.333Z,100
2022-09-11T02:27:15.449Z,100
2022-09-11T02:28:25.576Z,100
2022-09-11T02:29:34.719Z,100
2022-09-11T02:30:44.107Z,100
2022-09-11T02:31:53.977Z,100
2022-09-11T02:33:04.087Z,100
2022-09-11T02:34:14.209Z,100
2022-09-11T02:35:24.330Z,100
2022-09-11T02:36:34.436Z,100
2022-09-11T02:37:44.565Z,100
2022-09-11T02:38:54.667Z,100
2022-09-11T02:40:04.793Z,100
2022-09-11T02:41:14.916Z,100
2022-09-11T02:42:24.045Z,100
2022-09-11T02:43:33.179Z,100
2022-09-11T02:44:43.305Z,100
2022-09-11T02:45:53.421Z,100
2022-09-11T02:47:03.549Z,100
2022-09-11T02:48:13.656Z,100
2022-09-11T02:49:23.780Z,100
2022-09-11T02:50:33.899Z,100
2022-09-11T02:51:44.019Z,100
2022-09-11T02:52:54.123Z,100
2022-09-11T02:54:04.237Z,100
2022-09-11T02:56:24.470Z,100
2022-09-11T02:57:34.596Z,100
2022-09-11T02:58:43.730Z,100
2022-09-11T02:59:53.854Z,100
2022-09-11T03:01:03.956Z,100
2022-09-11T03:02:14.079Z,100
2022-09-11T03:03:24.201Z,100
2022-09-11T03:04:34.328Z,100
2022-09-11T03:05:44.439Z,100
2022-09-11T03:06:54.560Z,100
2022-09-11T03:08:04.663Z,100
2022-09-11T03:09:14.788Z,100
2022-09-11T03:10:24.914Z,100
2022-09-11T03:11:35.032Z,100
2022-09-11T03:12:45.136Z,100
2022-09-11T03:13:54.000Z,100
2022-09-11T03:15:03.404Z,100
2022-09-11T03:16:13.530Z,100
2022-09-11T03:17:23.646Z,100
2022-09-11T03:18:33.769Z,100
2022-09-11T03:19:43.876Z,100
2022-09-11T03:20:54.001Z,100
2022-09-11T03:22:04.126Z,100
2022-09-11T03:23:14.235Z,100
2022-09-11T03:24:24.358Z,100
2022-09-11T03:25:34.464Z,100
2022-09-11T03:26:44.585Z,100
2022-09-11T03:27:54.961Z,100
2022-09-11T03:29:04.820Z,100
2022-09-11T03:31:24.080Z,100
2022-09-11T03:32:34.183Z,100
2022-09-11T03:33:44.313Z,100
2022-09-11T03:34:54.419Z,100
2022-09-11T03:36:04.549Z,100
2022-09-11T03:37:14.657Z,100
2022-09-11T03:38:24.782Z,100
2022-09-11T03:39:34.889Z,100
2022-09-11T03:40:45.010Z,100
2022-09-11T03:41:55.129Z,100
2022-09-11T03:43:05.251Z,100
2022-09-11T03:44:15.375Z,100
2022-09-11T03:45:24.507Z,100
2022-09-11T03:46:34.611Z,100
2022-09-11T03:47:44.730Z,100
2022-09-11T03:48:54.863Z,100
2022-09-11T03:50:04.978Z,100
2022-09-11T03:51:15.081Z,100
2022-09-11T03:52:25.208Z,100
2022-09-11T03:53:35.323Z,100
2022-09-11T03:54:45.442Z,100
2022-09-11T03:55:55.566Z,100
2022-09-11T03:57:05.667Z,100
2022-09-11T03:58:15.801Z,100
2022-09-11T03:59:25.917Z,100
2022-09-11T04:00:35.036Z,100
2022-09-11T04:01:45.156Z,100
2022-09-11T04:02:55.274Z,100
2022-09-11T04:04:05.403Z,100
2022-09-11T04:05:15.510Z,100
2022-09-11T04:06:25.633Z,100
2022-09-11T04:07:35.745Z,100
2022-09-11T04:08:45.872Z,100
2022-09-11T04:09:55.977Z,100
2022-09-11T04:11:06.097Z,100
2022-09-11T04:12:16.219Z,100
2022-09-11T04:13:26.332Z,100
2022-09-11T04:14:36.459Z,100
2022-09-11T04:15:45.591Z,100
2022-09-11T04:16:55.713Z,100
2022-09-11T04:18:05.825Z,100
2022-09-11T04:19:15.949Z,100
2022-09-11T04:20:26.052Z,100
2022-09-11T04:21:36.176Z,100
2022-09-11T04:22:46.303Z,100
2022-09-11T04:25:06.787Z,100
2022-09-11T04:27:26.761Z,100
2022-09-11T04:28:36.873Z,100
2022-09-11T04:29:47.002Z,100
2022-09-11T04:30:56.125Z,100
2022-09-11T04:32:06.248Z,100
2022-09-11T04:34:26.480Z,100
2022-09-11T04:35:35.632Z,100
2022-09-11T04:36:44.768Z,100
2022-09-11T04:37:54.889Z,100
2022-09-11T04:39:04.994Z,100
2022-09-11T04:41:25.228Z,100
2022-09-11T04:42:35.354Z,100
2022-09-11T04:43:45.474Z,100
2022-09-11T04:44:55.579Z,100
2022-09-11T04:46:05.699Z,100
2022-09-11T04:47:15.828Z,100
2022-09-11T04:48:25.946Z,100
2022-09-11T04:49:36.053Z,100
2022-09-11T04:50:46.180Z,100
2022-09-11T04:51:55.300Z,100
2022-09-11T04:53:05.417Z,100
2022-09-11T04:54:15.537Z,100
2022-09-11T04:55:25.667Z,100
2022-09-11T04:56:35.786Z,100
2022-09-11T04:57:45.886Z,100
2022-09-11T04:58:56.009Z,100
2022-09-11T05:00:06.129Z,100
2022-09-11T05:02:25.387Z,100
2022-09-11T05:03:34.525Z,100
2022-09-11T05:04:44.645Z,100
2022-09-11T05:05:53.783Z,100
2022-09-11T05:07:02.923Z,100
2022-09-11T05:08:13.038Z,100
2022-09-11T05:09:23.163Z,100
2022-09-11T05:10:33.266Z,100
2022-09-11T05:11:43.388Z,100
2022-09-11T05:12:53.506Z,100
2022-09-11T05:14:03.627Z,100
2022-09-11T05:16:23.857Z,100
2022-09-11T05:17:33.979Z,100
2022-09-11T05:18:44.100Z,100
2022-09-11T05:19:54.000Z,100
2022-09-11T05:21:04.335Z,100
2022-09-11T05:23:23.572Z,100
2022-09-11T05:24:32.728Z,100
2022-09-11T05:25:41.850Z,100
2022-09-11T05:26:51.974Z,100
2022-09-11T05:28:02.100Z,100
2022-09-11T05:30:22.336Z,100
2022-09-11T05:31:32.438Z,100
2022-09-11T05:32:42.562Z,100
2022-09-11T05:33:52.690Z,100
2022-09-11T05:35:02.797Z,100
2022-09-11T05:37:23.044Z,100
2022-09-11T05:38:33.143Z,100
2022-09-11T05:39:42.289Z,100
2022-09-11T05:40:51.429Z,100
2022-09-11T05:42:01.546Z,100
2022-09-11T05:43:11.669Z,100
2022-09-11T05:44:21.774Z,100
2022-09-11T05:45:31.910Z,100
2022-09-11T05:46:42.023Z,100
2022-09-11T05:47:52.132Z,100
2022-09-11T05:49:02.243Z,100
2022-09-11T05:50:12.373Z,100
2022-09-11T05:51:22.489Z,100
2022-09-11T05:52:31.642Z,100
2022-09-11T05:53:40.772Z,100
2022-09-11T05:54:50.890Z,100
2022-09-11T05:56:00.993Z,100
2022-09-11T05:57:11.124Z,100
2022-09-11T05:58:21.231Z,100
2022-09-11T05:59:31.355Z,100
2022-09-11T06:00:41.727Z,100
2022-09-11T06:01:51.842Z,100
2022-09-11T06:03:01.700Z,100
2022-09-11T06:04:11.826Z,100
2022-09-11T06:05:20.965Z,100
2022-09-11T06:06:30.110Z,100
2022-09-11T06:07:40.000Z,100
2022-09-11T06:08:50.338Z,100
2022-09-11T06:10:00.459Z,100
2022-09-11T06:11:10.580Z,100
2022-09-11T06:12:20.687Z,100
2022-09-11T06:13:30.816Z,100
2022-09-11T06:14:40.923Z,100
2022-09-11T06:15:51.045Z,100
2022-09-11T06:17:01.150Z,100
2022-09-11T06:19:21.387Z,100
2022-09-11T06:20:31.507Z,100
2022-09-11T06:21:40.637Z,100
2022-09-11T06:22:50.761Z,100
2022-09-11T06:24:00.883Z,100
2022-09-11T06:26:21.111Z,100
2022-09-11T06:27:30.269Z,100
2022-09-11T06:28:39.398Z,100
2022-09-11T06:29:49.505Z,100
2022-09-11T06:30:59.636Z,100
2022-09-11T06:33:19.863Z,100
2022-09-11T06:34:29.988Z,100
2022-09-11T06:35:40.102Z,100
2022-09-11T06:36:50.209Z,100
2022-09-11T06:38:00.340Z,100
2022-09-11T06:40:20.564Z,100
2022-09-11T06:41:30.680Z,100
2022-09-11T06:42:39.823Z,100
2022-09-11T06:43:48.959Z,100
2022-09-11T06:44:59.083Z,100
2022-09-11T06:46:09.193Z,100
2022-09-11T06:47:19.314Z,100
2022-09-11T06:48:29.437Z,100
2022-09-11T06:49:39.557Z,100
2022-09-11T06:50:49.919Z,100
2022-09-11T06:51:59.781Z,100
2022-09-11T06:53:09.909Z,100
2022-09-11T06:54:20.015Z,100
2022-09-11T06:55:29.170Z,100
2022-09-11T06:56:38.287Z,99.9
2022-09-11T06:57:48.420Z,99.2
2022-09-11T06:58:58.527Z,100
2022-09-11T07:00:08.649Z,99.9
2022-09-11T07:01:18.771Z,99.6
2022-09-11T07:02:28.879Z,99.2
2022-09-11T07:03:38.998Z,98.4
2022-09-11T07:04:49.118Z,97.4
2022-09-11T07:05:59.229Z,97
2022-09-11T07:07:09.345Z,97
2022-09-11T07:08:18.500Z,96.3
2022-09-11T07:09:27.640Z,93.8
2022-09-11T07:10:38.002Z,94.4
2022-09-11T07:11:47.869Z,94.9
2022-09-11T07:12:57.989Z,94.9
2022-09-11T07:15:18.219Z,92.4
2022-09-11T07:16:28.343Z,91.8
2022-09-11T07:17:38.465Z,93.4
2022-09-11T07:18:48.584Z,88.7
2022-09-11T07:19:58.689Z,88.1
2022-09-11T07:21:08.820Z,88.2
2022-09-11T07:22:18.942Z,86.4
2022-09-11T07:23:29.044Z,87.7
2022-09-11T07:24:38.179Z,87.8
2022-09-11T07:25:48.301Z,87
2022-09-11T07:26:58.426Z,85.6
2022-09-11T07:28:08.533Z,84.3
2022-09-11T07:29:18.656Z,85.3
2022-09-11T07:30:28.774Z,85.1
2022-09-11T07:31:38.883Z,85.9
2022-09-11T07:32:49.013Z,83.4
2022-09-11T07:33:59.137Z,83.7
2022-09-11T07:36:19.362Z,84.9
2022-09-11T07:37:29.487Z,85.7
2022-09-11T07:38:39.596Z,85.9
2022-09-11T07:39:48.736Z,84.2
2022-09-11T07:40:58.851Z,84.5
2022-09-11T07:42:08.970Z,85.5
2022-09-11T07:43:19.080Z,85.7
2022-09-11T07:44:29.194Z,86.1
2022-09-11T07:45:39.321Z,85.5
2022-09-11T07:46:49.444Z,85.3
2022-09-11T07:47:59.567Z,86.6
2022-09-11T07:49:09.668Z,87.2
2022-09-11T07:50:19.792Z,87
2022-09-11T07:51:29.919Z,87.5
2022-09-11T07:52:40.023Z,87.6
2022-09-11T07:53:50.144Z,88
2022-09-11T07:54:59.286Z,86.9
2022-09-11T07:56:09.403Z,87.2
2022-09-11T07:57:19.511Z,88.5
2022-09-11T07:59:39.753Z,87.3
2022-09-11T08:00:49.876Z,86.5
2022-09-11T08:01:59.993Z,87
2022-09-11T08:04:20.215Z,87.6
2022-09-11T08:06:40.448Z,87.2
2022-09-11T08:07:49.594Z,85.3
2022-09-11T08:08:58.993Z,85.8
2022-09-11T08:10:08.854Z,86.1
2022-09-11T08:11:18.972Z,84.4
2022-09-11T08:12:29.090Z,85.2
2022-09-11T08:13:39.217Z,84.1
2022-09-11T08:14:49.320Z,84.9
2022-09-11T08:15:59.433Z,85.9
2022-09-11T08:17:09.567Z,84.6
2022-09-11T08:18:19.685Z,87
2022-09-11T08:19:29.793Z,87.3
2022-09-11T08:20:38.947Z,84.6
2022-09-11T08:21:48.080Z,84.6
2022-09-11T08:22:58.441Z,83.4
2022-09-11T08:24:08.305Z,81.6
2022-09-11T08:25:18.429Z,84.8
2022-09-11T08:26:28.550Z,82.5
2022-09-11T08:27:38.658Z,81.7
2022-09-11T08:28:48.788Z,81.7
2022-09-11T08:29:58.894Z,81.8
2022-09-11T08:31:09.020Z,81.3
2022-09-11T08:32:19.145Z,81.1
2022-09-11T08:33:29.251Z,81.4
2022-09-11T08:34:39.378Z,82
2022-09-11T08:35:49.486Z,80.9
2022-09-11T08:36:58.631Z,80.4
2022-09-11T08:38:08.746Z,80.7
2022-09-11T08:39:18.866Z,81.7
2022-09-11T08:40:28.972Z,81.2
2022-09-11T08:41:39.091Z,83.6
2022-09-11T08:42:49.210Z,81.4
2022-09-11T08:43:59.332Z,78.4
2022-09-11T08:46:19.562Z,78.4
2022-09-11T08:47:29.688Z,76.3
2022-09-11T08:48:39.794Z,77.6
2022-09-11T08:49:49.919Z,77.3
2022-09-11T08:51:00.034Z,77.5
2022-09-11T08:53:19.544Z,78.9
2022-09-11T08:54:29.657Z,77.5
2022-09-11T08:55:39.522Z,77.1
2022-09-11T08:56:49.648Z,77.2
2022-09-11T08:57:59.769Z,77.1
2022-09-11T08:59:09.874Z,76.5
2022-09-11T09:00:20.001Z,76.3
2022-09-11T09:01:30.108Z,76.1
2022-09-11T09:02:40.230Z,76.5
2022-09-11T09:03:50.357Z,76.7
2022-09-11T09:05:00.720Z,75.8
2022-09-11T09:06:10.577Z,76.7
2022-09-11T09:07:19.725Z,75.7
2022-09-11T09:08:29.841Z,76
2022-09-11T09:09:39.964Z,75.5
2022-09-11T09:10:50.072Z,74
2022-09-11T09:12:00.199Z,74.6
2022-09-11T09:13:10.307Z,75.3
2022-09-11T09:15:30.535Z,75.1
2022-09-11T09:16:40.662Z,74.7
2022-09-11T09:17:50.787Z,77.1
2022-09-11T09:19:00.894Z,80.2
2022-09-11T09:20:11.019Z,78.9
2022-09-11T09:21:21.140Z,79
2022-09-11T09:22:30.277Z,77.9
2022-09-11T09:23:40.386Z,78.9
2022-09-11T09:24:50.755Z,78.6
2022-09-11T09:26:00.622Z,76.9
2022-09-11T09:28:20.858Z,76.8
2022-09-11T09:29:30.966Z,78.1
2022-09-11T09:30:41.092Z,78
2022-09-11T09:31:51.219Z,78
2022-09-11T09:33:01.321Z,77.9
2022-09-11T09:35:21.571Z,77.8
2022-09-11T09:36:30.707Z,76.2
2022-09-11T09:37:39.834Z,78
2022-09-11T09:38:49.957Z,76.7
2022-09-11T09:40:00.081Z,77
2022-09-11T09:41:10.188Z,78.2
2022-09-11T09:42:20.311Z,77.3
2022-09-11T09:43:30.429Z,76.7
2022-09-11T09:44:40.555Z,76.7
2022-09-11T09:45:50.673Z,76.5
2022-09-11T09:47:00.796Z,75.4
2022-09-11T09:49:21.029Z,75.8
2022-09-11T09:50:31.136Z,75.8
2022-09-11T09:51:41.262Z,74.1
2022-09-11T09:52:50.397Z,74.5
2022-09-11T09:54:00.503Z,74.8
2022-09-11T09:55:10.629Z,77
2022-09-11T09:56:20.753Z,71.8
2022-09-11T09:57:30.870Z,73.9
2022-09-11T09:58:40.979Z,75.1
2022-09-11T09:59:51.107Z,75.6
2022-09-11T10:01:01.216Z,76.6
2022-09-11T10:03:20.733Z,73.4
2022-09-11T10:04:29.621Z,76.7
2022-09-11T10:05:39.728Z,73.4
2022-09-11T10:06:49.844Z,72.8
2022-09-11T10:07:59.968Z,72.1
2022-09-11T10:09:10.095Z,72.9
2022-09-11T10:10:20.196Z,74.2
2022-09-11T10:11:30.322Z,74.7
2022-09-11T10:12:40.432Z,73.4
2022-09-11T10:13:49.576Z,72.9
2022-09-11T10:14:58.963Z,74.3
2022-09-11T10:16:08.835Z,72.7
2022-09-11T10:17:19.204Z,72.8
2022-09-11T10:18:29.063Z,72.3
2022-09-11T10:19:39.186Z,74.5
2022-09-11T10:20:49.567Z,73.4
2022-09-11T10:21:59.418Z,73.4
2022-09-11T10:23:09.547Z,72.5
2022-09-11T10:24:19.654Z,72.8
2022-09-11T10:25:29.781Z,72.3
2022-09-11T10:26:39.904Z,72.8
2022-09-11T10:27:50.016Z,71.9
2022-09-11T10:29:00.138Z,71.6
2022-09-11T10:30:09.265Z,71.3
2022-09-11T10:31:19.392Z,72.5
2022-09-11T10:32:29.501Z,72.7
2022-09-11T10:33:39.874Z,73.5
2022-09-11T10:34:49.740Z,73.9
2022-09-11T10:35:59.866Z,73
2022-09-11T10:37:09.985Z,71.6
2022-09-11T10:38:19.549Z,72.1
2022-09-11T10:39:30.209Z,70.3
2022-09-11T10:40:40.336Z,70.7
2022-09-11T10:41:50.439Z,73.9
2022-09-11T10:43:00.563Z,70.8
2022-09-11T10:44:10.679Z,70.6
2022-09-11T10:45:19.815Z,70.8
2022-09-11T10:46:29.944Z,71.8
2022-09-11T10:47:40.043Z,68.7
2022-09-11T10:48:50.171Z,69.5
2022-09-11T10:50:00.295Z,68.4
2022-09-11T10:51:10.397Z,71.5
2022-09-11T10:52:20.772Z,70
2022-09-11T10:53:30.641Z,72.7
2022-09-11T10:54:40.765Z,70.5
2022-09-11T10:55:50.875Z,73.1
2022-09-11T10:57:00.989Z,74.2
2022-09-11T10:58:11.108Z,75
2022-09-11T10:59:21.231Z,75.7
2022-09-11T11:00:30.363Z,76.5
2022-09-11T11:01:40.477Z,74.2
2022-09-11T11:02:50.603Z,74.5
2022-09-11T11:03:59.743Z,72.7
2022-09-11T11:06:19.966Z,67.7
2022-09-11T11:07:30.092Z,68.3
2022-09-11T11:08:40.214Z,66.2
2022-09-11T11:09:50.324Z,69.1
2022-09-11T11:11:00.432Z,69
2022-09-11T11:12:10.549Z,69.5
2022-09-11T11:13:20.666Z,69.5
2022-09-11T11:14:30.783Z,72.2
2022-09-11T11:15:40.907Z,72.9
2022-09-11T11:16:51.028Z,74.3
2022-09-11T11:18:01.151Z,73.2
2022-09-11T11:20:20.403Z,74.5
2022-09-11T11:21:30.519Z,74.1
2022-09-11T11:22:40.626Z,74.5
2022-09-11T11:23:50.753Z,74.4
2022-09-11T11:25:00.857Z,73.3
2022-09-11T11:27:21.102Z,75.5
2022-09-11T11:28:30.239Z,74.5
2022-09-11T11:29:39.371Z,73.9
2022-09-11T11:30:49.494Z,74
2022-09-11T11:31:59.607Z,74.3
2022-09-11T11:33:09.727Z,74.8
2022-09-11T11:34:19.854Z,74.2
2022-09-11T11:35:29.972Z,74.8
2022-09-11T11:36:40.086Z,73
2022-09-11T11:37:50.207Z,73.3
2022-09-11T11:39:00.314Z,73.1
2022-09-11T11:40:10.434Z,68.8
2022-09-11T11:41:19.569Z,68.2
2022-09-11T11:42:28.705Z,66.8
2022-09-11T11:43:38.827Z,67.8
2022-09-11T11:44:48.941Z,68
2022-09-11T11:45:59.320Z,67.5
2022-09-11T11:48:19.291Z,68.9
2022-09-11T11:49:29.416Z,67.4
2022-09-11T11:50:39.538Z,68.9
2022-09-11T11:51:49.659Z,69.3
2022-09-11T11:52:59.776Z,72.2
2022-09-11T11:54:09.879Z,69.4
2022-09-11T11:55:20.009Z,69.4
2022-09-11T11:56:30.112Z,70.5
2022-09-11T11:57:39.254Z,70.1
2022-09-11T11:58:49.373Z,69.3
2022-09-11T11:59:59.498Z,68.8
2022-09-11T12:01:09.600Z,71.1
2022-09-11T12:02:19.725Z,71.2
2022-09-11T12:03:29.839Z,73.5
2022-09-11T12:04:39.963Z,72.3
2022-09-11T12:05:50.066Z,71.5
2022-09-11T12:07:00.200Z,72.8
2022-09-11T12:09:20.434Z,73.1
2022-09-11T12:11:40.667Z,73
2022-09-11T12:12:49.803Z,71.6
2022-09-11T12:13:59.184Z,72.9
2022-09-11T12:15:09.048Z,72.8
2022-09-11T12:16:19.168Z,72.4
2022-09-11T12:17:29.287Z,72.8
2022-09-11T12:18:39.406Z,73.3
2022-09-11T12:19:49.533Z,72.7
2022-09-11T12:20:59.639Z,73.4
2022-09-11T12:22:09.767Z,74.2
2022-09-11T12:23:19.875Z,75.3
2022-09-11T12:24:29.987Z,72.7
2022-09-11T12:25:39.141Z,72.1
2022-09-11T12:26:48.277Z,71.7
2022-09-11T12:27:58.389Z,70.9
2022-09-11T12:29:08.514Z,70.8
2022-09-11T12:30:18.618Z,70.8
2022-09-11T12:31:28.743Z,71.8
2022-09-11T12:32:38.866Z,70.8
2022-09-11T12:33:48.976Z,72.4
2022-09-11T12:34:59.103Z,72.3
2022-09-11T12:36:09.203Z,72.1
2022-09-11T12:37:19.331Z,71.4
2022-09-11T12:38:29.451Z,72.7
2022-09-11T12:39:39.554Z,72.5
2022-09-11T12:40:49.682Z,72.6
2022-09-11T12:41:59.063Z,72.9
2022-09-11T12:43:08.937Z,72.8
2022-09-11T12:44:19.058Z,73.1
2022-09-11T12:45:29.160Z,74
2022-09-11T12:46:39.283Z,73.3
2022-09-11T12:47:49.405Z,72.4
2022-09-11T12:48:59.528Z,73.1
2022-09-11T12:50:09.641Z,74.6
2022-09-11T12:51:19.761Z,74
2022-09-11T12:52:29.864Z,73.5
2022-09-11T12:53:39.986Z,72.9
2022-09-11T12:54:50.107Z,74.3
2022-09-11T12:56:00.229Z,71.9
2022-09-11T12:57:09.366Z,73.5
2022-09-11T12:58:19.483Z,73.9
2022-09-11T12:59:29.586Z,73.2
2022-09-11T13:00:39.715Z,73.7
2022-09-11T13:01:49.820Z,72.4
2022-09-11T13:02:59.941Z,73.1
2022-09-11T13:04:10.070Z,72.7
2022-09-11T13:05:20.184Z,71.6
2022-09-11T13:06:30.289Z,70
2022-09-11T13:07:40.410Z,70.1
2022-09-11T13:08:50.529Z,71.6
2022-09-11T13:10:00.659Z,71.2
2022-09-11T13:11:10.760Z,69.9
2022-09-11T13:12:19.912Z,70.4
2022-09-11T13:13:30.014Z,72.1
2022-09-11T13:14:40.143Z,73.1
2022-09-11T13:17:00.626Z,73.7
2022-09-11T13:18:10.488Z,74.1
2022-09-11T13:19:20.608Z,73.3
2022-09-11T13:20:30.731Z,73.2
2022-09-11T13:21:40.840Z,72.8
2022-09-11T13:22:50.968Z,72.3
2022-09-11T13:24:01.076Z,71.1
2022-09-11T13:25:11.186Z,70.5
2022-09-11T13:26:21.311Z,72.3
2022-09-11T13:27:30.442Z,72.2
2022-09-11T13:28:40.562Z,71.8
2022-09-11T13:29:50.131Z,71.3
2022-09-11T13:31:00.799Z,71.8
2022-09-11T13:33:21.282Z,74.8
2022-09-11T13:35:41.515Z,71.7
2022-09-11T13:36:50.665Z,72.4
2022-09-11T13:40:21.015Z,70.3
2022-09-11T13:43:51.366Z,67.8
2022-09-11T13:45:01.493Z,67.4
2022-09-11T13:47:21.717Z,62.8
2022-09-11T13:49:40.976Z,63.3
2022-09-11T13:52:01.212Z,64.6
2022-09-11T13:55:31.562Z,65.3
2022-09-11T13:56:41.671Z,66.8
2022-09-11T13:59:01.909Z,64.3
2022-09-11T14:01:22.151Z,66.3
2022-09-11T14:02:31.292Z,67.4
2022-09-11T14:04:51.523Z,69.5
2022-09-11T14:06:00.663Z,70
2022-09-11T14:08:20.897Z,71.6
2022-09-11T14:09:31.012Z,71.3
2022-09-11T14:11:51.238Z,72.3
2022-09-11T14:13:01.362Z,71.9
2022-09-11T14:15:21.589Z,70
2022-09-11T14:18:51.958Z,68.4
2022-09-11T14:22:22.295Z,69.8
2022-09-11T14:24:42.545Z,68.8
2022-09-11T14:25:51.662Z,70.7
2022-09-11T14:27:01.783Z,71.9
2022-09-11T14:29:22.017Z,71
2022-09-11T14:31:42.245Z,69.7
2022-09-11T14:32:52.369Z,68.8
2022-09-11T14:34:02.490Z,68
2022-09-11T14:39:53.068Z,65.9
2022-09-11T14:41:02.205Z,67.1
2022-09-11T14:43:22.439Z,66
2022-09-11T14:45:42.675Z,68.2
2022-09-11T14:46:52.787Z,68.7
2022-09-11T14:48:02.909Z,68.2
2022-09-11T14:50:23.134Z,68.8
2022-09-11T14:51:33.255Z,68.8
2022-09-11T14:52:43.387Z,69.7
2022-09-11T14:53:53.490Z,68.6
2022-09-11T14:55:03.612Z,70.4
2022-09-11T14:57:23.843Z,71.6
2022-09-11T15:00:53.226Z,72.4
2022-09-11T15:02:03.339Z,72.7
2022-09-11T15:04:23.586Z,74.8
2022-09-11T15:05:32.716Z,74.5
2022-09-11T15:06:42.833Z,74.7
2022-09-11T15:07:52.940Z,75.8
2022-09-11T15:09:03.067Z,75.5
2022-09-11T15:13:43.530Z,74.8
2022-09-11T15:14:53.652Z,75.9
2022-09-11T15:16:03.774Z,76.8
2022-09-11T15:18:24.004Z,75.4
2022-09-11T15:19:34.128Z,75.2
2022-09-11T15:20:43.262Z,76
2022-09-11T15:21:53.377Z,77
2022-09-11T15:23:03.501Z,74.9
2022-09-11T15:25:23.720Z,75.6
2022-09-11T15:26:33.849Z,76.2
2022-09-11T15:27:43.973Z,75.2
2022-09-11T15:28:54.086Z,76.7
2022-09-11T15:30:04.203Z,76.2
2022-09-11T15:32:24.426Z,77.5
2022-09-11T15:33:34.553Z,77.4
2022-09-11T15:34:44.666Z,77.9
2022-09-11T15:37:04.904Z,77.6
2022-09-11T15:41:45.377Z,78
2022-09-11T15:42:54.512Z,76.5
2022-09-11T15:46:24.858Z,75.8
2022-09-11T15:47:34.979Z,75.9
2022-09-11T15:48:45.107Z,76.4
2022-09-11T15:49:55.214Z,76.5
2022-09-11T15:51:05.330Z,76.9
2022-09-11T15:53:25.565Z,77.3
2022-09-11T15:54:35.680Z,76.9
2022-09-11T15:55:45.813Z,77.3
2022-09-11T15:56:55.921Z,76.7
2022-09-11T15:58:05.059Z,77.2
2022-09-11T16:00:25.294Z,77.2
2022-09-11T16:01:35.406Z,77.7
2022-09-11T16:03:55.644Z,77.7
2022-09-11T16:05:05.755Z,78.2
2022-09-11T16:07:25.993Z,77.2
2022-09-11T16:09:46.225Z,78.1
2022-09-11T16:10:56.346Z,78
2022-09-11T16:12:06.459Z,78.4
2022-09-11T16:16:45.940Z,78.4
2022-09-11T16:17:56.070Z,78.3
2022-09-11T16:19:06.181Z,78.3
2022-09-11T16:21:26.426Z,78.1
2022-09-11T16:23:46.661Z,77.5
2022-09-11T16:24:56.780Z,78.7
2022-09-11T16:26:06.894Z,78.2
2022-09-11T16:28:27.133Z,78.6
2022-09-11T16:30:46.386Z,78
2022-09-11T16:31:56.489Z,78
2022-09-11T16:33:06.615Z,78.6
2022-09-11T16:35:26.856Z,78.6
2022-09-11T16:36:36.966Z,78.5
2022-09-11T16:37:47.089Z,78.9
2022-09-11T16:38:57.196Z,79.1
2022-09-11T16:40:07.316Z,78.7
2022-09-11T16:42:27.556Z,78.9
2022-09-11T16:43:37.667Z,79.5
2022-09-11T16:44:46.817Z,79.3
2022-09-11T16:47:07.034Z,79.4
2022-09-11T16:50:37.391Z,80.3
2022-09-11T16:51:47.510Z,79.9
2022-09-11T16:52:57.621Z,80.7
2022-09-11T16:54:07.743Z,80.8
2022-09-11T16:55:17.864Z,80.8
2022-09-11T16:56:27.976Z,81.1
2022-09-11T16:57:38.090Z,81.3
2022-09-11T16:58:48.216Z,81.6
2022-09-11T16:59:57.347Z,82
2022-09-11T17:03:27.699Z,83.3
2022-09-11T17:04:37.810Z,83
2022-09-11T17:05:47.933Z,83.7
2022-09-11T17:06:58.049Z,84
2022-09-11T17:08:08.173Z,84.2
2022-09-11T17:10:28.401Z,84.2
2022-09-11T17:11:38.524Z,83.7
2022-09-11T17:12:48.638Z,83.8
2022-09-11T17:13:58.750Z,84
2022-09-11T17:15:08.877Z,84.1
2022-09-11T17:17:28.122Z,84.9
2022-09-11T17:18:38.247Z,84.6
2022-09-11T17:20:58.471Z,85.2
2022-09-11T17:22:08.592Z,85.1
2022-09-11T17:24:28.824Z,85.4
2022-09-11T17:26:49.067Z,85.8
2022-09-11T17:29:09.303Z,86.2
2022-09-11T17:31:29.540Z,86.8
2022-09-11T17:32:38.667Z,86.7
2022-09-11T17:33:48.786Z,86.7
2022-09-11T17:34:58.904Z,86.8
2022-09-11T17:36:09.025Z,86.9
2022-09-11T17:38:29.256Z,87
2022-09-11T17:40:49.490Z,87
2022-09-11T17:43:09.729Z,87.1
2022-09-11T17:45:29.971Z,87.2
2022-09-11T17:47:50.204Z,87.9
2022-09-11T17:52:29.670Z,88.5
2022-09-11T17:53:39.796Z,88.6
2022-09-11T17:54:49.917Z,89.3
2022-09-11T17:56:00.037Z,89.1
2022-09-11T17:57:10.149Z,89.3
2022-09-11T18:01:50.619Z,89.8
2022-09-11T18:03:00.727Z,89.8
2022-09-11T18:04:09.869Z,90.2
2022-09-11T18:06:30.098Z,90.5
2022-09-11T18:07:40.220Z,90.5
2022-09-11T18:08:50.358Z,90.3
2022-09-11T18:11:10.566Z,90.3
2022-09-11T18:13:30.808Z,90.7
2022-09-11T18:14:40.919Z,90.5
2022-09-11T18:15:51.041Z,90.5
2022-09-11T18:17:01.160Z,90.6
2022-09-11T18:18:11.277Z,90.4
2022-09-11T18:20:30.521Z,90.2
2022-09-11T18:21:40.633Z,90.2
2022-09-11T18:22:50.760Z,90.7
2022-09-11T18:24:00.878Z,90.3
2022-09-11T18:25:10.990Z,90.1
2022-09-11T18:27:31.225Z,90.5
2022-09-11T18:29:51.458Z,90.6
2022-09-11T18:31:01.580Z,90.6